Time;durP1;ratioP1;P1;durP2;ratioP2;P2;SDS_P1;SDS_P2;PMS_P1;PMS_P2;Temp;Humidity;BMP_temperature;BMP_pressure;BME280_temperature;BME280_humidity;BME280_pressure;Samples;Min_cycle;Max_cycle;Signal;HPM_P1;HPM_P2
2023/08/25 00:00:48;;;;;;;13.57;12.27;;;;;;;22.63;92.51;65370.56;5070722;28;20188;-52
2023/08/25 00:03:14;;;;;;;14.48;12.05;;;;;;;22.68;92.16;65378.13;5070637;28;20656;-53
2023/08/25 00:05:40;;;;;;;12.35;11.15;;;;;;;22.67;92.48;65377.56;5069824;28;20192;-58
2023/08/25 00:08:06;;;;;;;14.73;11.50;;;;;;;22.62;92.99;65369.47;5070889;28;20220;-61
2023/08/25 00:10:34;;;;;;;13.23;11.93;;;;;;;22.63;92.70;65372.59;5070909;28;20176;-54
2023/08/25 00:13:00;;;;;;;14.20;11.90;;;;;;;22.60;92.42;65369.81;5070408;28;20343;-54
2023/08/25 00:15:25;;;;;;;14.27;11.55;;;;;;;22.54;92.54;65361.13;5052443;28;20673;-56
2023/08/25 00:17:53;;;;;;;14.75;12.70;;;;;;;22.47;93.46;65355.97;5070655;28;20293;-52
2023/08/25 00:20:19;;;;;;;14.05;11.90;;;;;;;22.44;94.00;65352.63;5070592;28;20280;-53
2023/08/25 00:22:45;;;;;;;17.35;12.40;;;;;;;22.56;93.75;65365.91;5070428;28;20208;-53
2023/08/25 00:25:11;;;;;;;13.57;12.25;;;;;;;22.44;93.76;65355.19;5070350;28;20228;-53
2023/08/25 00:27:37;;;;;;;13.73;11.55;;;;;;;22.41;93.93;65346.19;5052251;28;20205;-53
2023/08/25 00:30:03;;;;;;;17.58;12.20;;;;;;;22.39;93.77;65346.53;5071041;28;20204;-53
2023/08/25 00:32:29;;;;;;;13.20;11.57;;;;;;;22.36;93.11;65343.25;5052447;28;20224;-54
2023/08/25 00:34:54;;;;;;;14.10;12.50;;;;;;;22.33;94.70;65337.91;5070359;28;20196;-55
2023/08/25 00:37:20;;;;;;;13.88;12.35;;;;;;;22.40;94.29;65348.19;5070540;28;20295;-54
2023/08/25 00:39:46;;;;;;;13.15;11.77;;;;;;;22.42;93.68;65347.84;5070547;28;20196;-54
2023/08/25 00:42:12;;;;;;;14.80;11.98;;;;;;;22.45;93.87;65355.75;5070640;28;20666;-52
2023/08/25 00:44:37;;;;;;;16.67;11.85;;;;;;;22.62;93.13;65368.91;5070355;28;20212;-54
2023/08/25 00:47:04;;;;;;;19.40;12.30;;;;;;;22.56;93.28;65365.38;5070060;28;20227;-53
2023/08/25 00:49:31;;;;;;;13.82;12.27;;;;;;;22.51;93.83;65359.84;5052310;28;20258;-54
2023/08/25 00:51:58;;;;;;;15.40;12.82;;;;;;;22.53;93.89;65359.47;5070133;28;20205;-54
2023/08/25 00:54:28;;;;;;;12.65;11.32;;;;;;;22.61;93.24;65370.94;5070388;28;20228;-54
2023/08/25 00:56:55;;;;;;;14.07;12.68;;;;;;;22.67;92.93;65380.13;5052150;28;20208;-53
2023/08/25 00:59:21;;;;;;;14.85;12.18;;;;;;;22.57;92.83;65366.47;5070242;28;20193;-55
2023/08/25 01:01:47;;;;;;;14.57;11.85;;;;;;;22.37;93.03;65342.31;5069919;28;20244;-57
2023/08/25 01:04:13;;;;;;;12.30;10.98;;;;;;;22.24;93.82;65329.94;5069887;28;20259;-53
2023/08/25 01:06:39;;;;;;;13.02;11.30;;;;;;;22.05;94.81;65308.91;5070008;28;20224;-53
2023/08/25 01:09:07;;;;;;;15.77;13.23;;;;;;;22.09;95.44;65313.34;5070256;28;20173;-53
2023/08/25 01:11:54;;;;;;;17.92;14.20;;;;;;;22.04;95.69;65310.38;5069926;28;20231;-60
2023/08/25 01:15:04;;;;;;;13.45;12.05;;;;;;;22.17;94.70;65322.19;5069848;28;20232;-54
2023/08/25 01:17:32;;;;;;;13.23;11.88;;;;;;;22.08;95.24;65310.22;5056953;28;20220;-54
2023/08/25 01:20:06;;;;;;;13.43;11.77;;;;;;;22.14;95.60;65318.88;5073409;28;20243;-53
2023/08/25 01:23:09;;;;;;;15.80;12.27;;;;;;;22.06;96.01;65310.03;5073691;28;20212;-54
2023/08/25 01:25:35;;;;;;;13.68;11.73;;;;;;;22.15;95.78;65319.97;5073741;28;20235;-54
2023/08/25 01:28:04;;;;;;;13.32;12.00;;;;;;;22.16;96.05;65321.09;5073389;28;20213;-55
2023/08/25 01:30:32;;;;;;;14.18;12.55;;;;;;;22.20;95.88;65325.53;5073320;28;20291;-53
2023/08/25 01:32:58;;;;;;;14.52;13.13;;;;;;;22.21;96.01;65327.19;5073286;28;20358;-54
2023/08/25 01:35:56;;;;;;;14.10;12.63;;;;;;;22.08;96.62;65310.22;5073323;28;20205;-55
2023/08/25 01:38:37;;;;;;;13.23;11.82;;;;;;;22.14;96.63;65322.00;5055090;28;20204;-57
2023/08/25 01:41:41;;;;;;;13.20;11.85;;;;;;;22.21;97.02;65326.63;5073206;28;20253;-55
2023/08/25 01:44:18;;;;;;;14.52;12.88;;;;;;;22.24;97.06;65330.50;4991603;28;20257;-54
2023/08/25 01:46:48;;;;;;;13.32;11.98;;;;;;;22.23;96.64;65328.84;5064262;28;20236;-59
2023/08/25 01:49:14;;;;;;;15.18;12.40;;;;;;;22.29;96.21;65335.47;5073132;28;20209;-55
2023/08/25 01:51:42;;;;;;;14.15;12.50;;;;;;;22.03;98.28;65307.25;5073074;28;20209;-54
2023/08/25 01:54:08;;;;;;;13.98;12.23;;;;;;;22.09;98.16;65313.91;5072903;28;20180;-55
2023/08/25 01:56:34;;;;;;;15.02;12.82;;;;;;;22.28;97.21;65334.38;5072709;28;20216;-55
2023/08/25 01:59:00;;;;;;;14.45;12.98;;;;;;;22.21;97.39;65326.63;5073416;28;20232;-54
2023/08/25 02:01:30;;;;;;;14.40;12.00;;;;;;;22.06;98.28;65312.59;5072790;28;20709;-56
2023/08/25 02:03:56;;;;;;;14.90;13.40;;;;;;;22.07;98.61;65309.13;5072721;28;20289;-54
2023/08/25 02:06:22;;;;;;;15.80;12.48;;;;;;;22.06;98.36;65312.59;5072593;28;20675;-55
2023/08/25 02:08:47;;;;;;;13.48;12.13;;;;;;;22.05;98.53;65308.91;5072714;28;20197;-54
2023/08/25 02:11:13;;;;;;;15.07;12.60;;;;;;;22.06;98.12;65310.56;5072520;28;20601;-55
2023/08/25 02:13:39;;;;;;;14.00;12.52;;;;;;;22.13;97.45;65315.19;5054668;28;20203;-55
2023/08/25 02:16:04;;;;;;;13.05;11.73;;;;;;;22.08;98.24;65309.69;5054548;28;20223;-55
2023/08/25 02:18:29;;;;;;;16.40;12.88;;;;;;;22.10;97.92;65317.03;5072679;28;20201;-54
2023/08/25 02:20:56;;;;;;;15.27;12.98;;;;;;;22.07;96.92;65311.13;5072082;28;20667;-54
2023/08/25 02:23:22;;;;;;;15.80;11.80;;;;;;;21.83;99.14;65282.00;5072528;28;20184;-62
2023/08/25 02:25:47;;;;;;;14.20;12.10;;;;;;;21.77;99.89;65281.03;5072452;28;20197;-55
2023/08/25 02:28:13;;;;;;;15.93;12.63;;;;;;;21.90;98.65;65292.88;5054155;28;20342;-55
2023/08/25 02:30:39;;;;;;;17.35;12.35;;;;;;;21.87;98.32;65289.00;5072518;28;20560;-55
2023/08/25 02:33:06;;;;;;;13.30;12.00;;;;;;;21.74;98.95;65275.69;5072378;28;20204;-58
2023/08/25 02:35:32;;;;;;;13.82;11.95;;;;;;;21.73;98.74;65274.03;5072516;28;20208;-54
2023/08/25 02:38:04;;;;;;;12.43;11.23;;;;;;;21.52;100.00;65251.38;5054176;28;20204;-54
2023/08/25 02:40:31;;;;;;;12.40;11.20;;;;;;;21.62;100.00;65261.88;5072154;28;20204;-54
2023/08/25 02:42:59;;;;;;;14.27;12.77;;;;;;;21.55;100.00;65254.13;5071956;28;20216;-54
2023/08/25 02:45:26;;;;;;;13.65;12.20;;;;;;;21.49;100.00;65250.06;5071982;28;20228;-54
2023/08/25 02:47:52;;;;;;;15.88;12.55;;;;;;;21.25;100.00;65223.50;5071735;28;20217;-54
2023/08/25 02:50:19;;;;;;;13.77;12.43;;;;;;;21.32;100.00;65229.25;5071675;28;20220;-53
2023/08/25 02:52:44;;;;;;;16.60;12.80;;;;;;;21.33;100.00;65229.81;5071849;28;20286;-53
2023/08/25 02:55:14;;;;;;;15.77;13.85;;;;;;;21.27;100.00;65223.16;5071865;28;20679;-55
2023/08/25 02:57:40;;;;;;;17.90;13.77;;;;;;;21.16;100.00;65208.97;5072071;28;20221;-54
2023/08/25 03:00:08;;;;;;;17.73;15.93;;;;;;;21.04;100.00;65200.28;5071996;28;20211;-55
2023/08/25 03:02:34;;;;;;;17.80;14.52;;;;;;;21.01;100.00;65194.41;5071963;28;20305;-54
2023/08/25 03:04:59;;;;;;;17.35;14.70;;;;;;;21.15;100.00;65209.91;5071854;28;20251;-54
2023/08/25 03:07:25;;;;;;;24.00;15.85;;;;;;;21.12;100.00;65207.13;5071556;28;20212;-54
2023/08/25 03:09:51;;;;;;;17.27;15.35;;;;;;;20.94;100.00;65187.19;5071783;28;20572;-53
2023/08/25 03:12:16;;;;;;;18.80;16.52;;;;;;;20.82;100.00;65174.50;5071768;28;20215;-53
2023/08/25 03:14:41;;;;;;;20.45;16.85;;;;;;;20.76;100.00;65167.88;5071625;28;20196;-55
2023/08/25 03:17:07;;;;;;;19.05;16.65;;;;;;;20.85;100.00;65179.81;5071516;28;20641;-53
2023/08/25 03:19:33;;;;;;;20.67;15.75;;;;;;;20.95;100.00;65190.31;5071448;28;20246;-56
2023/08/25 03:21:59;;;;;;;22.50;16.40;;;;;;;20.83;100.00;65178.16;5053267;28;20209;-54
2023/08/25 03:24:25;;;;;;;17.38;15.00;;;;;;;20.87;100.00;65182.00;5071402;28;20219;-53
2023/08/25 03:26:50;;;;;;;15.07;13.48;;;;;;;20.86;100.00;65180.91;5071429;28;20330;-53
2023/08/25 03:29:16;;;;;;;14.07;12.60;;;;;;;20.84;100.00;65176.16;5053269;28;20228;-54
2023/08/25 03:31:41;;;;;;;14.48;12.80;;;;;;;20.91;100.00;65186.44;5071447;28;20205;-54
2023/08/25 03:34:06;;;;;;;15.18;12.80;;;;;;;20.95;100.00;65188.31;5071260;28;20694;-55
2023/08/25 03:36:33;;;;;;;15.57;13.57;;;;;;;20.80;100.00;65172.28;5053097;28;20292;-54
2023/08/25 03:38:59;;;;;;;15.45;13.30;;;;;;;20.77;100.00;65171.53;5051934;28;20196;-53
2023/08/25 03:41:24;;;;;;;17.38;13.73;;;;;;;20.70;100.00;65163.22;5086943;22;20544;-53
2023/08/25 03:43:50;;;;;;;15.30;12.77;;;;;;;20.79;100.00;65170.59;5070847;28;20217;-53
2023/08/25 03:46:15;;;;;;;17.55;13.27;;;;;;;20.77;100.00;65168.97;5071067;28;20229;-53
2023/08/25 03:48:41;;;;;;;15.23;12.77;;;;;;;20.69;100.00;65162.13;5070981;28;20674;-54
2023/08/25 03:51:06;;;;;;;14.50;12.30;;;;;;;20.80;100.00;65174.84;5071268;28;20293;-54
2023/08/25 03:53:33;;;;;;;16.23;13.02;;;;;;;20.71;100.00;65161.75;5070981;28;20690;-53
2023/08/25 03:55:59;;;;;;;13.60;12.20;;;;;;;20.66;100.00;65156.81;5052787;28;20197;-52
2023/08/25 03:58:25;;;;;;;14.15;12.60;;;;;;;20.61;100.00;65150.72;5052849;28;20208;-54
2023/08/25 04:00:54;;;;;;;15.00;12.50;;;;;;;20.59;100.00;65148.50;5070746;28;20197;-53
2023/08/25 04:03:20;;;;;;;15.07;13.48;;;;;;;20.61;100.00;65150.72;5070723;28;20203;-53
2023/08/25 04:05:46;;;;;;;14.20;12.80;;;;;;;20.67;100.00;65157.34;5070765;28;20200;-53
2023/08/25 04:08:11;;;;;;;15.90;12.35;;;;;;;20.81;100.00;65172.81;5070662;28;20196;-53
2023/08/25 04:10:37;;;;;;;15.93;12.57;;;;;;;21.09;100.00;65200.69;5070573;28;20212;-55
2023/08/25 04:13:03;;;;;;;14.10;12.70;;;;;;;21.12;100.00;65209.13;5052863;28;20768;-54
2023/08/25 04:15:29;;;;;;;16.75;12.75;;;;;;;21.20;100.00;65215.97;5070968;28;20220;-52
2023/08/25 04:17:55;;;;;;;15.82;12.65;;;;;;;21.12;100.00;65207.13;5052845;28;20204;-53
2023/08/25 04:20:21;;;;;;;18.08;12.88;;;;;;;21.19;100.00;65214.84;5070754;28;20205;-53
2023/08/25 04:22:47;;;;;;;13.95;12.27;;;;;;;21.28;100.00;65222.25;5070739;28;20639;-53
2023/08/25 04:25:12;;;;;;;16.40;12.95;;;;;;;21.30;100.00;65227.03;5070409;28;20220;-53
2023/08/25 04:27:37;;;;;;;17.98;13.23;;;;;;;21.13;100.00;65205.66;5070594;28;20213;-54
2023/08/25 04:30:03;;;;;;;19.10;14.45;;;;;;;20.92;100.00;65185.00;5070560;28;20287;-54
2023/08/25 04:32:29;;;;;;;15.30;12.13;;;;;;;20.92;100.00;65188.13;5070278;28;20721;-54
2023/08/25 04:34:54;;;;;;;18.48;14.35;;;;;;;20.77;100.00;65168.97;5070444;28;20318;-55
2023/08/25 04:37:20;;;;;;;17.13;13.40;;;;;;;20.81;100.00;65172.81;5070642;28;20204;-55
2023/08/25 04:39:45;;;;;;;14.15;12.63;;;;;;;20.85;100.00;65177.81;5070185;28;20211;-53
2023/08/25 04:42:11;;;;;;;15.20;12.57;;;;;;;20.93;100.00;65186.66;5070341;28;20671;-53
2023/08/25 04:44:36;;;;;;;21.60;13.65;;;;;;;21.01;100.00;65194.41;5070257;28;20927;-54
2023/08/25 04:47:02;;;;;;;16.48;14.07;;;;;;;21.06;100.00;65202.50;5070207;28;20304;-55
2023/08/25 04:49:29;;;;;;;16.73;12.93;;;;;;;21.15;100.00;65212.47;5070500;28;20209;-59
2023/08/25 04:51:55;;;;;;;19.05;15.20;;;;;;;21.03;100.00;65199.19;5073214;28;20290;-55
2023/08/25 04:54:20;;;;;;;18.58;14.85;;;;;;;21.12;100.00;65206.56;5055917;28;20721;-54
2023/08/25 04:56:46;;;;;;;17.00;14.23;;;;;;;21.18;100.00;65216.31;5073869;28;20291;-53
2023/08/25 04:59:12;;;;;;;19.52;15.10;;;;;;;20.91;100.00;65183.88;5073793;28;20674;-55
2023/08/25 05:01:37;;;;;;;17.00;15.20;;;;;;;21.31;100.00;65228.13;5055841;28;20211;-53
2023/08/25 05:04:03;;;;;;;63.55;57.70;;;;;;;21.65;100.00;65265.72;5073694;28;20216;-55
2023/08/25 05:06:29;;;;;;;25.08;18.25;;;;;;;21.82;100.00;65286.03;5073810;28;20204;-56
2023/08/25 05:08:56;;;;;;;22.23;17.80;;;;;;;22.01;100.00;65305.03;5073848;28;20294;-56
2023/08/25 05:11:22;;;;;;;27.08;19.85;;;;;;;22.35;100.00;65339.56;5073560;28;20212;-55
2023/08/25 05:13:48;;;;;;;25.45;19.80;;;;;;;22.62;100.00;65374.63;5073635;28;20188;-55
2023/08/25 05:16:17;;;;;;;19.98;17.10;;;;;;;22.49;100.00;65358.19;5055911;28;20346;-55
2023/08/25 05:18:43;;;;;;;27.10;18.10;;;;;;;22.51;100.00;65362.97;5073676;28;20236;-55
2023/08/25 05:21:08;;;;;;;20.20;16.70;;;;;;;22.61;100.00;65370.94;5055218;28;20243;-54
2023/08/25 05:23:34;;;;;;;17.85;15.55;;;;;;;22.60;100.00;65369.81;5073520;28;20207;-57
2023/08/25 05:26:01;;;;;;;28.17;20.55;;;;;;;22.65;100.00;65375.34;5073305;28;20678;-55
2023/08/25 05:28:26;;;;;;;38.08;24.00;;;;;;;22.72;100.00;65383.13;5073504;28;20207;-54
2023/08/25 05:30:52;;;;;;;20.27;16.63;;;;;;;22.84;100.00;65390.69;5073192;28;20659;-55
2023/08/25 05:33:17;;;;;;;18.27;16.30;;;;;;;22.73;100.00;65383.66;5073307;28;20196;-55
2023/08/25 05:35:50;;;;;;;21.83;16.50;;;;;;;22.67;100.00;65377.00;5072986;28;20201;-55
2023/08/25 05:38:17;;;;;;;19.38;16.55;;;;;;;22.62;100.00;65371.47;5072645;28;20212;-55
2023/08/25 05:40:42;;;;;;;27.63;18.27;;;;;;;22.41;100.00;65349.31;5071234;28;20212;-55
2023/08/25 05:43:08;;;;;;;19.38;16.02;;;;;;;22.58;100.00;65367.63;5052952;28;20682;-55
2023/08/25 05:45:34;;;;;;;21.98;17.55;;;;;;;22.61;100.00;65370.38;5073024;28;20219;-54
2023/08/25 05:48:01;;;;;;;20.02;16.52;;;;;;;22.63;100.00;65372.59;5072930;28;20447;-55
2023/08/25 05:50:26;;;;;;;22.05;17.17;;;;;;;22.66;100.00;65378.47;5071198;28;20205;-61
2023/08/25 05:52:53;;;;;;;20.67;17.88;;;;;;;22.60;100.00;65369.81;5071048;28;20701;-54
2023/08/25 05:55:19;;;;;;;22.83;19.25;;;;;;;22.64;100.00;65369.13;5071671;28;20208;-55
2023/08/25 05:57:44;;;;;;;25.92;18.15;;;;;;;22.77;100.00;65386.06;5073008;28;20212;-55
2023/08/25 06:00:11;;;;;;;20.80;18.30;;;;;;;22.87;100.00;65399.16;5038262;28;20212;-55
2023/08/25 06:02:36;;;;;;;21.02;17.52;;;;;;;22.79;100.00;65387.72;5053894;28;20208;-55
2023/08/25 06:05:01;;;;;;;24.38;19.80;;;;;;;22.59;100.00;65365.59;5072675;28;20266;-53
2023/08/25 06:07:28;;;;;;;20.85;18.52;;;;;;;22.52;100.00;65360.94;5073133;28;20211;-54
2023/08/25 06:09:54;;;;;;;22.80;19.90;;;;;;;22.52;100.00;65360.94;5072672;28;20209;-54
2023/08/25 06:12:20;;;;;;;19.88;17.75;;;;;;;22.55;100.00;65361.69;5072913;28;20201;-54
2023/08/25 06:14:47;;;;;;;22.73;19.13;;;;;;;22.57;100.00;65363.91;5072848;28;20239;-53
2023/08/25 06:17:13;;;;;;;24.00;19.00;;;;;;;22.66;100.00;65376.47;5054903;28;20729;-54
2023/08/25 06:19:38;;;;;;;21.83;17.65;;;;;;;22.65;100.00;65375.34;5072743;28;20205;-53
2023/08/25 06:22:04;;;;;;;21.80;18.38;;;;;;;22.67;100.00;65377.56;5054546;28;20758;-53
2023/08/25 06:24:30;;;;;;;23.63;18.23;;;;;;;22.75;100.00;65386.44;5072725;28;20213;-54
2023/08/25 06:26:56;;;;;;;29.05;21.67;;;;;;;22.92;100.00;65404.69;5072631;28;20204;-52
2023/08/25 06:29:21;;;;;;;26.95;19.27;;;;;;;23.23;100.00;65437.03;5072335;28;20253;-53
2023/08/25 06:31:47;;;;;;;24.13;17.17;;;;;;;23.17;100.00;65435.53;5072494;28;20216;-51
2023/08/25 06:34:13;;;;;;;23.85;19.83;;;;;;;23.19;100.00;65437.19;5072384;28;20361;-52
2023/08/25 06:36:39;;;;;;;19.42;16.85;;;;;;;23.15;100.00;65430.72;5072217;28;20696;-53
2023/08/25 06:39:05;;;;;;;20.17;17.15;;;;;;;23.18;100.00;65430.94;5054259;28;20694;-53
2023/08/25 06:41:31;;;;;;;20.17;16.70;;;;;;;23.21;100.00;65436.84;5072050;28;20233;-53
2023/08/25 06:43:59;;;;;;;19.88;17.27;;;;;;;23.22;100.00;65437.94;5054089;28;20227;-54
2023/08/25 06:46:25;;;;;;;18.67;16.38;;;;;;;23.18;100.00;65431.50;5071946;28;20221;-53
2023/08/25 06:48:51;;;;;;;22.50;17.80;;;;;;;23.15;100.00;65428.16;5072392;28;20217;-53
2023/08/25 06:51:17;;;;;;;21.83;18.35;;;;;;;23.35;100.00;65450.34;5072082;28;20651;-54
2023/08/25 06:53:42;;;;;;;22.02;17.33;;;;;;;23.51;99.74;65470.09;5072096;28;20313;-54
2023/08/25 06:56:08;;;;;;;21.10;17.40;;;;;;;23.51;100.00;65466.97;5071985;28;20212;-53
2023/08/25 06:58:36;;;;;;;24.08;18.88;;;;;;;23.82;98.84;65501.88;5071853;28;20208;-54
2023/08/25 07:01:02;;;;;;;21.90;17.85;;;;;;;23.92;99.56;65514.97;5053835;28;20291;-53
2023/08/25 07:03:28;;;;;;;21.38;18.40;;;;;;;24.07;98.16;65532.19;5071842;28;20763;-53
2023/08/25 07:05:58;;;;;;;19.40;16.95;;;;;;;24.13;96.59;65536.25;5071821;28;20249;-53
2023/08/25 07:08:25;;;;;;;22.85;16.45;;;;;;;23.99;96.91;65520.16;5071602;28;20216;-53
2023/08/25 07:10:51;;;;;;;18.73;14.73;;;;;;;23.92;97.19;65512.94;5053608;28;20253;-53
2023/08/25 07:13:17;;;;;;;35.25;27.65;;;;;;;23.98;95.91;65521.63;5071819;28;20208;-52
2023/08/25 07:15:43;;;;;;;24.70;17.83;;;;;;;24.00;96.83;65524.41;5071576;28;20249;-53
2023/08/25 07:18:10;;;;;;;21.50;18.23;;;;;;;24.01;97.06;65525.53;5071475;28;20255;-53
2023/08/25 07:20:35;;;;;;;20.15;16.70;;;;;;;24.33;95.21;65557.88;5071776;28;20293;-54
2023/08/25 07:23:01;;;;;;;19.88;16.58;;;;;;;24.38;95.10;65560.31;5071656;28;20236;-54
2023/08/25 07:25:27;;;;;;;24.30;16.17;;;;;;;24.50;94.21;65579.31;5071698;28;20212;-53
2023/08/25 07:27:52;;;;;;;20.85;17.83;;;;;;;24.53;94.26;65579.50;5071398;28;20582;-53
2023/08/25 07:30:18;;;;;;;22.70;16.27;;;;;;;24.69;94.27;65595.22;5071511;28;20585;-53
2023/08/25 07:32:52;;;;;;;19.73;15.73;;;;;;;24.77;94.14;65606.16;5053566;28;20240;-54
2023/08/25 07:35:17;;;;;;;25.98;20.65;;;;;;;24.77;92.92;65606.16;5071738;28;20292;-54
2023/08/25 07:37:43;;;;;;;25.35;18.52;;;;;;;24.83;92.62;65612.81;5053615;28;20694;-53
2023/08/25 07:40:10;;;;;;;21.83;16.13;;;;;;;25.32;89.84;65666.63;5071908;28;20317;-54
2023/08/25 07:42:35;;;;;;;18.23;14.60;;;;;;;25.33;90.58;65668.28;5053698;28;20196;-55
2023/08/25 07:45:01;;;;;;;19.58;14.60;;;;;;;25.30;90.13;65664.41;5071277;28;20304;-53
2023/08/25 07:47:27;;;;;;;19.88;13.27;;;;;;;25.50;88.90;65687.19;5071380;28;20197;-56
2023/08/25 07:49:52;;;;;;;15.18;13.57;;;;;;;25.44;88.54;65683.09;5071541;28;20292;-53
2023/08/25 07:52:18;;;;;;;28.35;19.15;;;;;;;25.44;87.16;65677.38;5071054;28;20200;-53
2023/08/25 07:54:44;;;;;;;17.17;11.57;;;;;;;25.48;84.81;65684.41;5071246;28;20211;-53
2023/08/25 07:57:09;;;;;;;21.35;12.95;;;;;;;25.55;83.28;65689.59;5071287;28;20205;-54
2023/08/25 07:59:35;;;;;;;20.23;16.13;;;;;;;25.70;81.33;65708.81;5070921;28;20259;-53
2023/08/25 08:02:02;;;;;;;14.00;11.43;;;;;;;25.75;81.70;65712.38;5052840;28;20216;-53
2023/08/25 08:04:30;;;;;;;14.52;11.98;;;;;;;25.93;81.12;65733.81;5052976;28;20227;-53
2023/08/25 08:06:57;;;;;;;13.00;9.90;;;;;;;25.98;78.32;65739.91;5071055;28;20222;-53
2023/08/25 08:09:24;;;;;;;15.20;11.57;;;;;;;26.11;77.54;65754.38;5053400;28;20228;-54
2023/08/25 08:11:50;;;;;;;12.32;10.35;;;;;;;26.04;77.77;65743.44;5070986;28;20274;-54
2023/08/25 08:14:15;;;;;;;15.88;10.55;;;;;;;26.06;76.30;65750.84;5070960;28;20213;-53
2023/08/25 08:16:41;;;;;;;15.65;10.05;;;;;;;26.02;74.64;65743.81;5070883;28;20200;-54
2023/08/25 08:19:06;;;;;;;8.73;7.47;;;;;;;26.16;68.61;65759.38;5070897;28;20702;-56
2023/08/25 08:21:32;;;;;;;11.60;7.60;;;;;;;26.18;67.44;65759.03;5070719;28;20221;-54
2023/08/25 08:23:57;;;;;;;9.88;8.52;;;;;;;26.20;69.70;65763.81;5070747;28;20328;-54
2023/08/25 08:26:23;;;;;;;19.02;10.23;;;;;;;26.28;69.19;65773.25;5069809;28;20215;-54
2023/08/25 08:28:48;;;;;;;10.23;9.02;;;;;;;26.45;69.16;65791.59;5070735;28;20288;-54
2023/08/25 08:31:18;;;;;;;19.98;10.27;;;;;;;26.61;67.66;65809.91;5070537;28;20196;-54
2023/08/25 08:33:45;;;;;;;12.13;8.18;;;;;;;26.88;65.18;65838.84;5070430;28;20208;-55
2023/08/25 08:36:11;;;;;;;9.23;7.65;;;;;;;26.82;66.48;65832.16;5070353;28;20229;-52
2023/08/25 08:38:37;;;;;;;16.33;12.02;;;;;;;26.87;66.71;65835.13;5070920;28;20177;-53
2023/08/25 08:41:03;;;;;;;11.32;8.98;;;;;;;27.09;63.73;65862.72;5070206;28;20307;-52
2023/08/25 08:43:35;;;;;;;14.13;11.35;;;;;;;27.10;65.62;65863.28;5070564;28;20240;-53
2023/08/25 08:46:04;;;;;;;10.88;8.30;;;;;;;27.10;62.00;65860.69;5052083;28;20200;-52
2023/08/25 08:48:32;;;;;;;10.90;8.40;;;;;;;27.06;62.76;65859.41;5070307;28;20208;-52
2023/08/25 08:51:00;;;;;;;10.70;7.95;;;;;;;27.01;61.42;65853.28;5069875;28;20196;-53
2023/08/25 08:53:27;;;;;;;13.10;8.52;;;;;;;27.15;62.80;65868.84;5070235;28;20205;-54
2023/08/25 08:55:54;;;;;;;8.38;7.47;;;;;;;27.51;60.79;65908.91;5070309;28;20197;-53
2023/08/25 08:58:21;;;;;;;9.20;8.20;;;;;;;27.65;59.82;65927.06;5070288;28;20203;-53
2023/08/25 09:00:46;;;;;;;14.02;12.52;;;;;;;27.67;59.36;65926.69;5070195;28;20199;-55
2023/08/25 09:03:21;;;;;;;9.88;8.23;;;;;;;27.79;58.81;65939.47;5052088;28;20588;-54
2023/08/25 09:05:48;;;;;;;9.55;6.90;;;;;;;28.08;57.88;65969.16;5070066;28;20222;-54
2023/08/25 09:08:16;;;;;;;9.95;7.28;;;;;;;28.33;56.32;65996.41;5070462;28;20207;-53
2023/08/25 09:10:41;;;;;;;16.67;11.82;;;;;;;28.27;55.38;65992.91;5070051;28;20205;-54
2023/08/25 09:13:07;;;;;;;21.48;6.90;;;;;;;28.19;50.72;65981.41;5070258;28;20205;-53
2023/08/25 09:15:35;;;;;;;10.77;5.95;;;;;;;28.38;52.27;65999.97;5070218;28;20197;-54
2023/08/25 09:18:01;;;;;;;11.43;6.60;;;;;;;28.51;50.52;66016.44;5070087;28;20205;-54
2023/08/25 09:20:29;;;;;;;8.82;6.47;;;;;;;28.69;50.12;66039.66;5069844;28;20212;-55
2023/08/25 09:22:56;;;;;;;7.18;6.38;;;;;;;28.71;50.89;66038.72;5069932;28;20209;-54
2023/08/25 09:25:24;;;;;;;8.35;6.72;;;;;;;28.56;50.95;66022.59;5069664;28;20281;-53
2023/08/25 09:27:57;;;;;;;8.02;5.90;;;;;;;28.91;50.02;66061.00;5069726;28;20217;-52
2023/08/25 09:30:39;;;;;;;8.75;7.78;;;;;;;28.92;49.82;66062.13;5069794;28;20170;-52
2023/08/25 09:33:09;;;;;;;9.02;6.70;;;;;;;29.04;49.53;66075.47;5070005;28;20216;-54
2023/08/25 09:35:35;;;;;;;10.90;6.55;;;;;;;29.28;49.83;66104.81;5069501;28;20220;-53
2023/08/25 09:38:01;;;;;;;7.93;7.13;;;;;;;29.46;48.47;66124.84;5072514;28;20259;-53
2023/08/25 09:40:30;;;;;;;9.65;6.93;;;;;;;29.69;47.09;66147.88;5054953;28;20197;-51
2023/08/25 09:43:00;;;;;;;10.15;7.07;;;;;;;29.82;48.13;66161.81;5072978;28;20223;-53
2023/08/25 09:45:28;;;;;;;9.07;6.88;;;;;;;30.23;46.85;66206.94;5073264;28;20204;-52
2023/08/25 09:48:04;;;;;;;12.60;8.88;;;;;;;29.87;46.33;66167.41;5073418;28;20296;-52
2023/08/25 09:50:38;;;;;;;8.23;6.13;;;;;;;30.31;45.19;66216.47;5073218;28;20176;-53
2023/08/25 09:53:05;;;;;;;9.48;7.05;;;;;;;30.04;45.43;66185.78;5072857;28;20223;-52
2023/08/25 09:55:38;;;;;;;6.88;5.95;;;;;;;29.99;45.00;66180.78;5072824;28;20193;-52
2023/08/25 09:58:08;;;;;;;10.02;5.30;;;;;;;30.21;42.89;66205.28;5073076;28;20209;-52
2023/08/25 10:00:36;;;;;;;6.15;5.55;;;;;;;30.68;43.72;66257.69;5072893;28;20243;-52
2023/08/25 10:03:08;;;;;;;8.85;6.50;;;;;;;31.17;42.81;66311.78;5080979;22;20251;-53
2023/08/25 10:05:35;;;;;;;6.15;5.55;;;;;;;31.62;41.19;66364.06;5072687;28;20211;-52
2023/08/25 10:08:00;;;;;;;8.73;4.97;;;;;;;31.98;41.71;66404.25;5054704;28;20679;-52
2023/08/25 10:10:31;;;;;;;6.50;5.47;;;;;;;31.93;39.23;66396.09;5072542;28;20191;-52
2023/08/25 10:12:57;;;;;;;6.55;5.95;;;;;;;32.02;39.75;66403.50;5072987;28;20208;-52
2023/08/25 10:15:27;;;;;;;10.05;6.13;;;;;;;32.28;40.39;66431.44;5071909;28;20205;-54
2023/08/25 10:17:54;;;;;;;6.65;5.38;;;;;;;32.67;41.11;66477.59;5071369;28;20208;-55
2023/08/25 10:20:22;;;;;;;6.15;5.55;;;;;;;32.68;38.28;66479.28;5071504;28;20200;-52
2023/08/25 10:22:50;;;;;;;9.73;5.53;;;;;;;32.62;39.26;66472.59;5071391;28;20208;-52
2023/08/25 10:25:18;;;;;;;6.90;6.22;;;;;;;31.78;39.59;66381.38;5072328;28;20219;-52
2023/08/25 10:27:45;;;;;;;8.50;6.88;;;;;;;32.09;39.48;66413.38;5072195;28;20220;-53
2023/08/25 10:30:11;;;;;;;7.95;5.43;;;;;;;32.12;39.84;66417.28;5070889;28;20197;-52
2023/08/25 10:32:58;;;;;;;6.68;5.45;;;;;;;32.83;38.83;66498.63;5054508;28;20281;-54
2023/08/25 10:35:43;;;;;;;9.27;5.75;;;;;;;32.64;38.37;66474.81;5072519;28;20330;-53
2023/08/25 10:38:18;;;;;;;7.55;6.45;;;;;;;32.05;38.17;66412.09;5072529;28;20213;-53
2023/08/25 10:40:48;;;;;;;19.67;15.60;;;;;;;32.56;37.86;66465.31;5072301;28;20204;-52
2023/08/25 10:43:14;;;;;;;6.32;5.43;;;;;;;32.85;36.10;66498.25;5072446;28;20193;-51
2023/08/25 10:45:39;;;;;;;7.88;6.78;;;;;;;32.43;37.11;66451.34;5053840;28;20227;-53
2023/08/25 10:48:06;;;;;;;7.47;5.50;;;;;;;32.14;36.23;66419.50;5071388;28;20254;-53
2023/08/25 10:50:33;;;;;;;6.50;5.70;;;;;;;32.41;36.24;66446.50;5071948;28;20197;-55
2023/08/25 10:52:58;;;;;;;7.40;5.88;;;;;;;32.42;36.33;66450.22;5053743;28;20212;-53
2023/08/25 10:55:27;;;;;;;6.65;5.85;;;;;;;32.87;37.95;66500.50;5071693;28;20176;-60
2023/08/25 10:57:53;;;;;;;6.10;5.50;;;;;;;33.54;36.75;66571.66;5071980;28;20219;-53
2023/08/25 11:00:29;;;;;;;9.73;5.95;;;;;;;34.03;35.59;66631.69;5071834;28;20208;-60
2023/08/25 11:02:56;;;;;;;6.70;6.03;;;;;;;34.05;34.81;66631.28;5071857;28;20748;-53
2023/08/25 11:05:33;;;;;;;7.78;5.30;;;;;;;34.06;34.83;66629.25;5071789;28;20212;-53
2023/08/25 11:08:25;;;;;;;11.65;6.25;;;;;;;33.58;35.16;66579.28;5053643;28;20213;-56
2023/08/25 11:11:11;;;;;;;8.48;6.30;;;;;;;33.59;35.29;66579.84;5071671;28;20288;-53
2023/08/25 11:13:41;;;;;;;6.10;5.45;;;;;;;33.81;33.48;66602.41;5071642;28;20207;-54
2023/08/25 11:16:11;;;;;;;9.75;8.02;;;;;;;33.93;33.51;66615.25;5071429;28;20212;-59
2023/08/25 11:18:42;;;;;;;10.02;6.70;;;;;;;34.01;32.72;66626.81;5053528;28;20205;-52